Time;durP1;ratioP1;P1;durP2;ratioP2;P2;SDS_P1;SDS_P2;PMS_P1;PMS_P2;Temp;Humidity;BMP_temperature;BMP_pressure;BME280_temperature;BME280_humidity;BME280_pressure;Samples;Min_cycle;Max_cycle;Signal;HPM_P1;HPM_P2
2021/05/15 00:01:18;;;;;;;8.77;2.70;;;10.50;99.90;;;;;;10340209;28;20049;-82
2021/05/15 00:06:39;;;;;;;7.43;2.90;;;10.40;99.90;;;;;;10305765;28;20110;-82
2021/05/15 00:12:00;;;;;;;4.72;2.10;;;10.40;99.90;;;;;;10310615;28;20105;-82
2021/05/15 00:17:21;;;;;;;7.97;3.50;;;10.30;99.90;;;;;;10341204;28;20095;-82
2021/05/15 00:22:44;;;;;;;7.97;3.72;;;10.30;99.90;;;;;;10333829;28;20489;-82
2021/05/15 00:28:05;;;;;;;5.93;2.55;;;10.30;99.90;;;;;;10338186;28;20037;-81
2021/05/15 00:33:26;;;;;;;5.20;2.08;;;10.20;99.90;;;;;;10324723;28;20034;-82
2021/05/15 00:38:47;;;;;;;5.05;2.08;;;10.20;99.90;;;;;;10328075;28;20053;-81
2021/05/15 00:44:30;;;;;;;5.40;2.72;;;10.20;99.90;;;;;;10323963;28;20054;-82
2021/05/15 00:49:52;;;;;;;5.75;2.45;;;10.30;99.90;;;;;;10346638;28;20752;-81
2021/05/15 00:55:14;;;;;;;6.00;2.10;;;10.30;99.90;;;;;;10334156;28;20041;-82
2021/05/15 01:00:35;;;;;;;6.75;2.75;;;10.30;99.90;;;;;;10335458;28;20100;-82
2021/05/15 01:05:57;;;;;;;7.85;2.95;;;10.20;99.90;;;;;;10345169;28;20038;-82
2021/05/15 01:11:20;;;;;;;6.80;2.50;;;10.10;99.90;;;;;;10333313;28;20050;-82
2021/05/15 01:16:41;;;;;;;4.22;2.40;;;10.20;99.90;;;;;;10360202;28;20112;-82
2021/05/15 01:22:13;;;;;;;6.40;2.22;;;10.20;99.90;;;;;;10349096;28;20045;-81
2021/05/15 01:27:34;;;;;;;7.13;2.75;;;10.20;99.90;;;;;;10346310;28;20088;-82
2021/05/15 01:32:55;;;;;;;8.40;2.47;;;10.30;99.90;;;;;;10334463;28;20049;-82
2021/05/15 01:38:16;;;;;;;8.85;3.75;;;10.30;99.90;;;;;;10322955;28;20559;-83
2021/05/15 01:43:38;;;;;;;7.03;2.50;;;10.40;99.90;;;;;;10332959;28;20145;-82
2021/05/15 01:48:59;;;;;;;7.18;2.35;;;10.30;99.90;;;;;;10332445;28;20140;-82
2021/05/15 01:54:20;;;;;;;9.32;2.03;;;10.40;99.90;;;;;;10348788;28;20033;-82
2021/05/15 01:59:41;;;;;;;5.65;1.98;;;10.40;99.90;;;;;;10334079;28;20070;-82
2021/05/15 02:05:02;;;;;;;9.00;3.08;;;10.50;99.90;;;;;;10328868;28;20482;-82
2021/05/15 02:10:23;;;;;;;4.60;2.10;;;10.60;99.90;;;;;;10339141;28;20505;-82
2021/05/15 02:15:46;;;;;;;6.38;2.10;;;10.60;99.90;;;;;;10338359;28;20614;-83
2021/05/15 02:21:07;;;;;;;6.68;2.38;;;10.60;99.90;;;;;;10337444;28;20042;-82
2021/05/15 02:26:28;;;;;;;9.23;2.55;;;10.60;99.90;;;;;;10351647;28;20201;-82
2021/05/15 02:31:49;;;;;;;7.18;3.03;;;10.60;99.90;;;;;;10340294;28;21020;-81
2021/05/15 02:37:10;;;;;;;5.15;2.00;;;10.70;99.90;;;;;;10326295;28;20498;-82
2021/05/15 02:42:31;;;;;;;6.38;2.83;;;10.60;99.90;;;;;;10335386;28;20046;-82
2021/05/15 02:47:53;;;;;;;7.43;2.70;;;10.60;99.90;;;;;;10326962;28;20390;-83
2021/05/15 02:53:15;;;;;;;6.20;2.53;;;10.50;99.90;;;;;;10322620;28;20069;-82
2021/05/15 02:58:36;;;;;;;7.13;3.00;;;10.50;99.90;;;;;;10319999;28;20149;-83
2021/05/15 03:03:57;;;;;;;4.68;2.20;;;10.40;99.90;;;;;;10321321;28;20034;-83
2021/05/15 03:09:18;;;;;;;7.30;2.28;;;10.30;99.90;;;;;;10336367;28;20029;-83
2021/05/15 03:14:40;;;;;;;6.03;2.72;;;10.40;99.90;;;;;;10325075;28;21080;-81
2021/05/15 03:20:02;;;;;;;11.98;2.78;;;10.30;99.90;;;;;;10345042;28;20049;-82
2021/05/15 03:25:23;;;;;;;7.95;3.50;;;10.40;99.90;;;;;;10326731;28;20401;-82
2021/05/15 03:30:44;;;;;;;7.28;2.58;;;10.40;99.90;;;;;;10346225;28;20058;-81
2021/05/15 03:36:05;;;;;;;11.77;3.65;;;10.40;99.90;;;;;;10325575;28;20129;-81
2021/05/15 03:41:27;;;;;;;6.43;2.65;;;10.30;99.90;;;;;;10335066;28;20038;-81
2021/05/15 03:46:48;;;;;;;9.32;3.78;;;10.30;99.90;;;;;;10335163;28;20124;-82
2021/05/15 03:52:09;;;;;;;7.05;2.72;;;10.40;99.90;;;;;;10333866;28;20899;-81
2021/05/15 03:57:30;;;;;;;6.88;2.70;;;10.40;99.90;;;;;;10321033;28;20133;-82
2021/05/15 04:02:51;;;;;;;6.07;2.58;;;10.40;99.90;;;;;;10348552;28;20046;-81
2021/05/15 04:08:12;;;;;;;5.88;2.25;;;10.40;99.90;;;;;;10321636;28;20038;-81
2021/05/15 04:19:00;;;;;;;7.68;1.88;;;10.40;99.90;;;;;;10346913;28;20140;-82
2021/05/15 04:24:24;;;;;;;6.97;3.40;;;10.40;99.90;;;;;;10308976;28;20038;-82
2021/05/15 04:29:46;;;;;;;8.48;2.90;;;10.40;99.90;;;;;;10331932;28;20101;-82
2021/05/15 04:35:07;;;;;;;6.68;3.35;;;10.50;99.90;;;;;;10331409;28;20047;-82
2021/05/15 04:40:29;;;;;;;7.75;2.60;;;10.50;99.90;;;;;;10317691;28;20060;-82
2021/05/15 04:45:52;;;;;;;7.20;3.58;;;10.40;99.90;;;;;;10320089;28;20679;-82
2021/05/15 04:51:13;;;;;;;7.78;3.40;;;10.40;99.90;;;;;;10331971;28;20088;-82
2021/05/15 04:56:34;;;;;;;8.77;2.97;;;10.30;99.90;;;;;;10318862;28;20176;-82
2021/05/15 05:01:55;;;;;;;11.60;2.47;;;10.30;99.90;;;;;;10318130;28;20042;-81
2021/05/15 05:07:19;;;;;;;6.80;2.53;;;10.40;99.90;;;;;;10305659;28;20042;-82
2021/05/15 05:12:40;;;;;;;7.30;2.28;;;10.40;99.90;;;;;;10330707;28;20042;-84
2021/05/15 05:18:01;;;;;;;6.72;2.35;;;10.40;99.90;;;;;;10327083;28;20656;-82
2021/05/15 05:23:24;;;;;;;8.90;3.00;;;10.50;99.90;;;;;;10317951;28;20050;-81
2021/05/15 05:28:50;;;;;;;7.53;2.47;;;10.70;99.90;;;;;;10330335;28;20120;-83
2021/05/15 05:34:11;;;;;;;8.07;3.75;;;10.60;99.90;;;;;;10324310;28;20042;-83
2021/05/15 05:39:32;;;;;;;7.68;2.50;;;10.60;99.90;;;;;;10320600;28;20056;-83
2021/05/15 05:44:53;;;;;;;22.15;4.05;;;10.80;99.90;;;;;;10341778;28;20053;-82
2021/05/15 05:50:14;;;;;;;9.55;3.33;;;10.90;99.90;;;;;;10321944;28;20929;-82
2021/05/15 05:55:35;;;;;;;7.28;3.47;;;10.80;99.90;;;;;;10311822;28;20410;-83
2021/05/15 06:00:56;;;;;;;9.32;3.95;;;10.80;99.90;;;;;;10318362;28;20136;-82
2021/05/15 06:06:17;;;;;;;7.13;3.70;;;10.80;99.90;;;;;;10324094;28;20088;-83
2021/05/15 06:11:38;;;;;;;5.50;2.25;;;10.70;99.90;;;;;;10334788;28;20093;-82
2021/05/15 06:16:59;;;;;;;11.55;3.47;;;10.80;99.90;;;;;;10304763;28;20827;-83
2021/05/15 06:22:20;;;;;;;11.57;4.43;;;10.70;99.90;;;;;;10308162;28;20470;-82
2021/05/15 06:27:41;;;;;;;9.75;4.03;;;10.80;99.90;;;;;;10322502;28;20136;-83
2021/05/15 06:33:02;;;;;;;12.20;4.20;;;10.70;99.90;;;;;;10313275;28;20154;-82
2021/05/15 06:38:23;;;;;;;9.63;3.95;;;10.70;99.90;;;;;;10323911;28;20034;-83
2021/05/15 06:43:44;;;;;;;10.80;4.15;;;10.80;99.90;;;;;;10329566;28;20061;-82
2021/05/15 06:49:05;;;;;;;13.00;3.88;;;10.70;99.90;;;;;;10338019;28;20121;-82
2021/05/15 06:54:26;;;;;;;10.57;3.83;;;10.70;99.90;;;;;;10342172;28;20030;-82
2021/05/15 06:59:47;;;;;;;7.63;3.08;;;10.70;99.90;;;;;;10348304;28;20046;-83
2021/05/15 07:05:09;;;;;;;10.15;4.43;;;10.80;99.90;;;;;;10336456;28;20131;-82
2021/05/15 07:10:30;;;;;;;10.88;4.15;;;10.90;99.90;;;;;;10324190;28;20041;-83
2021/05/15 07:15:51;;;;;;;8.40;3.88;;;11.00;99.90;;;;;;10336053;28;20048;-84
2021/05/15 07:21:12;;;;;;;8.40;3.28;;;11.10;99.90;;;;;;10336421;28;20604;-80
2021/05/15 07:26:32;;;;;;;11.65;4.57;;;11.30;99.90;;;;;;10331118;28;20061;-83
2021/05/15 07:31:53;;;;;;;19.30;4.68;;;11.30;99.90;;;;;;10342852;28;20038;-83
2021/05/15 07:37:15;;;;;;;10.15;4.00;;;11.00;99.90;;;;;;10334233;28;20120;-82
2021/05/15 07:42:36;;;;;;;7.82;3.55;;;10.90;99.90;;;;;;10322535;28;20120;-82
2021/05/15 07:48:00;;;;;;;10.85;4.32;;;11.10;99.90;;;;;;10332347;28;20508;-81
2021/05/15 07:53:21;;;;;;;8.77;3.30;;;11.10;99.90;;;;;;10326061;28;20048;-83
2021/05/15 07:58:42;;;;;;;9.43;3.25;;;11.00;99.90;;;;;;10326318;28;20046;-85
2021/05/15 08:04:03;;;;;;;10.18;3.45;;;11.20;99.90;;;;;;10344315;28;20053;-82
2021/05/15 08:09:24;;;;;;;8.10;3.08;;;11.20;99.90;;;;;;10332283;28;20503;-83
2021/05/15 08:14:45;;;;;;;8.35;2.60;;;11.30;99.90;;;;;;10326384;28;20076;-86
2021/05/15 08:20:07;;;;;;;11.00;3.75;;;11.30;99.90;;;;;;10338567;28;20126;-83
2021/05/15 08:25:28;;;;;;;7.07;2.63;;;11.50;99.90;;;;;;10325829;28;20042;-84
2021/05/15 08:30:49;;;;;;;7.90;2.58;;;11.90;99.90;;;;;;10323113;28;20068;-84
2021/05/15 08:36:10;;;;;;;6.85;2.88;;;12.20;99.90;;;;;;10307831;28;20378;-84
2021/05/15 08:41:32;;;;;;;6.95;3.17;;;12.50;99.90;;;;;;10326042;28;20124;-84
2021/05/15 08:46:56;;;;;;;9.60;3.15;;;12.50;99.90;;;;;;10342952;28;20508;-84
2021/05/15 08:52:16;;;;;;;8.27;3.03;;;12.50;99.90;;;;;;10336942;28;20049;-86
2021/05/15 08:57:38;;;;;;;6.57;3.22;;;12.60;99.90;;;;;;10352328;28;20386;-83
2021/05/15 09:03:05;;;;;;;7.40;3.28;;;12.60;99.90;;;;;;10334887;28;20038;-84
2021/05/15 09:08:26;;;;;;;5.50;2.65;;;12.70;99.90;;;;;;10334333;28;20041;-84
2021/05/15 09:13:54;;;;;;;6.22;2.40;;;13.00;99.90;;;;;;10320307;28;20042;-85
2021/05/15 09:19:29;;;;;;;9.90;2.67;;;13.50;99.90;;;;;;10321850;28;20117;-85
2021/05/15 09:24:50;;;;;;;4.07;2.33;;;14.30;99.90;;;;;;10348241;28;20048;-85
2021/05/15 09:30:12;;;;;;;6.15;2.38;;;14.60;99.90;;;;;;10309380;28;20504;-84
2021/05/15 09:35:33;;;;;;;4.38;2.40;;;14.50;99.90;;;;;;10346860;28;20082;-84
2021/05/15 09:40:53;;;;;;;15.77;1.90;;;14.80;99.90;;;;;;10308702;28;20112;-84
2021/05/15 09:46:27;;;;;;;5.40;2.40;;;14.70;99.90;;;;;;10307499;28;20137;-85
2021/05/15 09:52:08;;;;;;;5.55;2.03;;;15.00;99.90;;;;;;10330900;28;20066;-85
2021/05/15 09:57:29;;;;;;;6.80;3.03;;;15.00;99.90;;;;;;10330282;28;20058;-83
2021/05/15 10:02:54;;;;;;;6.68;2.47;;;14.70;99.90;;;;;;10335419;28;20078;-82
2021/05/15 10:08:17;;;;;;;7.80;3.10;;;14.50;99.90;;;;;;10334015;28;20035;-83
2021/05/15 10:13:40;;;;;;;5.78;2.50;;;14.50;99.90;;;;;;10330395;28;20041;-83
2021/05/15 10:19:01;;;;;;;6.75;2.55;;;14.50;99.90;;;;;;10345987;28;20038;-82
2021/05/15 10:24:31;;;;;;;7.35;3.35;;;14.40;99.90;;;;;;10319191;28;20898;-84
2021/05/15 10:29:54;;;;;;;8.45;3.00;;;14.30;99.90;;;;;;10355568;28;20072;-83
2021/05/15 10:35:27;;;;;;;9.50;3.30;;;14.10;99.90;;;;;;10355949;28;20735;-84
2021/05/15 10:40:50;;;;;;;8.10;3.70;;;14.30;99.90;;;;;;10339089;28;20061;-83
2021/05/15 10:46:25;;;;;;;7.07;2.33;;;14.90;99.90;;;;;;10359928;28;20035;-82
2021/05/15 10:51:52;;;;;;;6.13;3.15;;;14.60;99.90;;;;;;10351225;28;20061;-83
2021/05/15 10:57:14;;;;;;;6.32;3.28;;;14.50;99.90;;;;;;10356064;28;20053;-83
2021/05/15 11:02:37;;;;;;;7.95;3.78;;;14.70;99.90;;;;;;10349129;28;20042;-82
2021/05/15 11:07:58;;;;;;;10.60;4.22;;;14.30;99.90;;;;;;10320654;28;21869;-82
2021/05/15 11:13:20;;;;;;;8.57;3.33;;;14.70;99.90;;;;;;10310584;28;20439;-82
2021/05/15 11:18:41;;;;;;;10.00;4.55;;;14.80;99.90;;;;;;10320217;28;20038;-82
2021/05/15 11:24:03;;;;;;;10.15;4.50;;;14.70;99.90;;;;;;10320584;28;20038;-83
2021/05/15 11:29:34;;;;;;;9.07;3.70;;;14.40;99.90;;;;;;10340194;28;20030;-82
2021/05/15 11:34:55;;;;;;;11.13;4.68;;;14.10;99.90;;;;;;10350189;28;20073;-83
2021/05/15 11:40:17;;;;;;;11.15;4.18;;;14.00;99.90;;;;;;10324847;28;20093;-83
2021/05/15 11:45:38;;;;;;;11.25;4.60;;;13.90;99.90;;;;;;10336639;28;20046;-84
2021/05/15 11:51:13;;;;;;;11.05;4.43;;;13.80;99.90;;;;;;10309249;28;20152;-84
2021/05/15 11:56:34;;;;;;;14.60;5.90;;;13.60;99.90;;;;;;10329659;28;20608;-85
2021/05/15 12:01:56;;;;;;;13.75;6.35;;;13.60;99.90;;;;;;10316804;28;20054;-85
2021/05/15 12:07:17;;;;;;;18.67;5.80;;;13.80;99.90;;;;;;10310958;28;20046;-85
2021/05/15 12:12:38;;;;;;;15.48;5.78;;;14.20;99.90;;;;;;10306859;28;20034;-85
2021/05/15 12:18:00;;;;;;;15.45;5.72;;;14.30;99.90;;;;;;10307465;28;20057;-85
2021/05/15 12:23:25;;;;;;;15.00;5.78;;;14.20;99.90;;;;;;10321693;28;20035;-84
2021/05/15 12:28:48;;;;;;;13.32;6.55;;;14.10;99.90;;;;;;10342274;28;20034;-84
2021/05/15 12:34:10;;;;;;;11.90;5.30;;;14.40;99.90;;;;;;10333970;28;20049;-83
2021/05/15 12:39:35;;;;;;;12.30;5.55;;;14.40;99.90;;;;;;10330442;28;20045;-84
2021/05/15 12:45:07;;;;;;;14.82;6.05;;;14.50;99.90;;;;;;10347544;28;20053;-85
2021/05/15 12:50:29;;;;;;;15.45;6.47;;;14.50;99.90;;;;;;10333813;28;20054;-85
2021/05/15 12:55:54;;;;;;;21.55;5.47;;;15.00;99.90;;;;;;10322324;28;20068;-85
2021/05/15 13:01:15;;;;;;;10.80;4.53;;;15.50;99.90;;;;;;10344168;28;20049;-85
2021/05/15 13:06:38;;;;;;;9.18;4.60;;;15.70;99.90;;;;;;10333364;28;20046;-85
2021/05/15 13:11:59;;;;;;;9.50;3.53;;;15.10;99.90;;;;;;10348064;28;20188;-85
2021/05/15 13:17:20;;;;;;;6.43;3.42;;;14.90;99.90;;;;;;10333582;28;20045;-84
2021/05/15 13:22:41;;;;;;;11.52;3.72;;;14.90;99.90;;;;;;10331571;28;20104;-85
2021/05/15 13:28:02;;;;;;;5.65;2.20;;;14.80;99.90;;;;;;10343982;28;20046;-84
2021/05/15 13:33:23;;;;;;;6.25;2.55;;;14.70;99.90;;;;;;10335801;28;20133;-85
2021/05/15 13:38:44;;;;;;;7.40;2.55;;;14.90;99.90;;;;;;10331692;28;20421;-84
2021/05/15 13:44:05;;;;;;;7.00;2.63;;;15.10;99.90;;;;;;10334862;28;20043;-84
2021/05/15 13:49:26;;;;;;;6.60;2.40;;;15.40;99.90;;;;;;10320630;28;20042;-83
2021/05/15 13:54:47;;;;;;;8.65;3.47;;;16.00;99.90;;;;;;10343855;28;20044;-85
2021/05/15 14:00:10;;;;;;;5.10;2.33;;;15.80;99.90;;;;;;10337000;28;20030;-85
2021/05/15 14:05:31;;;;;;;8.10;3.33;;;15.40;99.90;;;;;;10343690;28;20141;-84
2021/05/15 14:10:54;;;;;;;1.67;0.50;;;14.80;99.90;;;;;;10356222;28;20135;-85
2021/05/15 14:16:15;;;;;;;1.40;0.40;;;13.60;99.90;;;;;;10362088;28;20122;-84
2021/05/15 14:21:36;;;;;;;1.73;0.77;;;12.20;99.90;;;;;;10345630;28;20049;-84
2021/05/15 14:26:57;;;;;;;0.77;0.20;;;11.60;99.90;;;;;;10343461;28;20101;-84
2021/05/15 14:32:18;;;;;;;0.43;0.20;;;11.20;99.90;;;;;;10346111;28;20069;-87
2021/05/15 14:37:39;;;;;;;0.98;0.30;;;11.20;99.90;;;;;;10326463;28;20042;-85
2021/05/15 14:43:00;;;;;;;0.60;0.32;;;11.30;99.90;;;;;;10355501;28;20124;-85
2021/05/15 14:48:31;;;;;;;0.80;0.30;;;11.60;99.90;;;;;;10352562;28;20038;-84
2021/05/15 14:53:52;;;;;;;0.73;0.40;;;11.90;99.90;;;;;;10331333;28;20053;-84
2021/05/15 14:59:13;;;;;;;0.38;0.10;;;12.20;99.90;;;;;;10324745;28;20042;-84
2021/05/15 15:04:34;;;;;;;1.15;0.52;;;12.70;99.90;;;;;;10311964;28;20054;-84
2021/05/15 15:09:56;;;;;;;0.77;0.28;;;12.80;99.90;;;;;;10309783;28;20046;-84
2021/05/15 15:15:16;;;;;;;0.85;0.30;;;12.70;99.90;;;;;;10338897;28;20133;-84
2021/05/15 15:20:38;;;;;;;3.88;0.35;;;12.70;99.90;;;;;;10308821;28;20073;-85
2021/05/15 15:25:59;;;;;;;0.93;0.40;;;12.70;99.90;;;;;;10312456;28;21082;-84
2021/05/15 15:31:20;;;;;;;1.30;0.30;;;12.90;99.90;;;;;;10322057;28;20045;-84
2021/05/15 15:36:41;;;;;;;1.73;0.65;;;13.00;99.90;;;;;;10335412;28;20037;-84
2021/05/15 15:42:02;;;;;;;3.05;0.40;;;12.90;99.90;;;;;;10323554;28;20107;-83
2021/05/15 15:47:25;;;;;;;1.33;0.40;;;12.80;99.90;;;;;;10341903;28;20044;-83
2021/05/15 15:52:46;;;;;;;1.30;0.60;;;12.60;99.90;;;;;;10311289;28;20046;-84
2021/05/15 15:58:07;;;;;;;2.25;0.90;;;12.40;99.90;;;;;;10309561;28;20038;-86
2021/05/15 16:03:30;;;;;;;2.17;0.80;;;12.30;99.90;;;;;;10312154;28;20469;-85
2021/05/15 16:08:52;;;;;;;3.03;0.80;;;12.40;99.90;;;;;;10307798;28;20060;-86
2021/05/15 16:14:13;;;;;;;4.35;1.30;;;12.40;99.90;;;;;;10309360;28;20034;-86
2021/05/15 16:19:34;;;;;;;2.67;1.35;;;12.40;99.90;;;;;;10335735;28;20122;-86
2021/05/15 16:24:55;;;;;;;2.15;1.02;;;12.60;99.90;;;;;;10317936;28;20050;-86
2021/05/15 16:30:18;;;;;;;4.15;1.10;;;12.70;99.90;;;;;;10308165;28;20038;-84
2021/05/15 16:35:44;;;;;;;2.97;1.20;;;12.70;99.90;;;;;;10328354;28;20042;-85
2021/05/15 16:41:06;;;;;;;2.17;1.02;;;12.70;99.90;;;;;;10308025;28;20057;-84
2021/05/15 16:46:29;;;;;;;2.65;1.33;;;12.70;99.90;;;;;;10340091;28;20046;-85
2021/05/15 16:51:50;;;;;;;2.90;0.95;;;12.60;99.90;;;;;;10322769;28;20064;-84
2021/05/15 16:57:11;;;;;;;2.95;1.00;;;12.70;99.90;;;;;;10310011;28;20058;-84
2021/05/15 17:02:32;;;;;;;2.92;1.08;;;12.60;99.90;;;;;;10347523;28;20038;-84
2021/05/15 17:07:53;;;;;;;0.80;0.55;;;12.40;99.90;;;;;;10325268;28;20048;-84
2021/05/15 17:13:17;;;;;;;2.22;0.80;;;12.20;99.90;;;;;;10319969;28;20046;-83
2021/05/15 17:18:38;;;;;;;3.13;0.70;;;11.90;99.90;;;;;;10350745;28;20042;-84
2021/05/15 17:23:59;;;;;;;2.67;0.75;;;11.80;99.90;;;;;;10336221;28;20454;-84
2021/05/15 17:29:20;;;;;;;1.92;0.77;;;11.80;99.90;;;;;;10323141;28;20169;-85
2021/05/15 17:34:42;;;;;;;2.45;0.75;;;11.90;99.90;;;;;;10306072;28;20049;-85
2021/05/15 17:40:05;;;;;;;2.50;0.70;;;12.00;99.90;;;;;;10318866;28;20050;-84
2021/05/15 17:45:26;;;;;;;2.00;0.80;;;11.90;99.90;;;;;;10321034;28;20042;-85
2021/05/15 17:50:47;;;;;;;1.70;0.43;;;11.80;99.90;;;;;;10354826;28;20034;-85
2021/05/15 17:56:08;;;;;;;3.45;0.98;;;11.70;99.90;;;;;;10344592;28;20034;-83
2021/05/15 18:01:29;;;;;;;1.52;0.52;;;11.60;99.90;;;;;;10334667;28;20050;-84
2021/05/15 18:06:50;;;;;;;3.42;1.65;;;11.70;99.90;;;;;;10318514;28;20049;-85
2021/05/15 18:12:12;;;;;;;2.35;0.85;;;11.70;99.90;;;;;;10318763;28;20080;-85
2021/05/15 18:17:34;;;;;;;1.10;0.60;;;11.60;99.90;;;;;;10314039;28;20034;-84
2021/05/15 18:22:55;;;;;;;1.90;0.50;;;11.60;99.90;;;;;;10333959;28;20092;-85
2021/05/15 18:28:16;;;;;;;2.33;0.85;;;11.60;99.90;;;;;;10332725;28;20041;-84
2021/05/15 18:33:37;;;;;;;0.82;0.43;;;11.60;99.90;;;;;;10323669;28;20922;-85
2021/05/15 18:38:58;;;;;;;0.98;0.43;;;11.60;99.90;;;;;;10331018;28;20041;-85
2021/05/15 18:44:19;;;;;;;1.20;0.73;;;11.50;99.90;;;;;;10333371;28;20478;-85
2021/05/15 18:49:40;;;;;;;2.03;1.00;;;11.50;99.90;;;;;;10320828;28;20397;-84
2021/05/15 18:55:04;;;;;;;2.45;1.02;;;11.60;99.90;;;;;;10322679;28;20127;-85
2021/05/15 19:00:25;;;;;;;2.38;0.90;;;11.50;99.90;;;;;;10344238;28;20096;-85
2021/05/15 19:05:46;;;;;;;2.60;0.98;;;11.60;99.90;;;;;;10342840;28;20121;-85
2021/05/15 19:11:07;;;;;;;2.92;1.25;;;11.60;99.90;;;;;;10320167;28;20044;-85
2021/05/15 19:16:28;;;;;;;3.10;1.20;;;11.70;99.90;;;;;;10356022;28;20452;-86
2021/05/15 19:21:49;;;;;;;4.25;1.50;;;11.70;99.90;;;;;;10329490;28;20053;-86
2021/05/15 19:27:10;;;;;;;4.18;1.58;;;11.60;99.90;;;;;;10325667;28;20034;-84
2021/05/15 19:32:31;;;;;;;3.50;1.17;;;11.60;99.90;;;;;;10344340;28;20070;-84
2021/05/15 19:37:53;;;;;;;3.42;1.52;;;11.60;99.90;;;;;;10329565;28;20049;-84
2021/05/15 19:43:14;;;;;;;3.92;2.17;;;11.50;99.90;;;;;;10343145;28;20050;-83
2021/05/15 19:48:35;;;;;;;3.35;1.27;;;11.50;99.90;;;;;;10316175;28;20060;-85
2021/05/15 19:53:58;;;;;;;3.90;1.75;;;11.50;99.90;;;;;;10328206;28;20038;-83
2021/05/15 19:59:19;;;;;;;4.53;1.83;;;11.40;99.90;;;;;;10316568;28;20582;-83
2021/05/15 20:04:40;;;;;;;4.20;1.85;;;11.50;99.90;;;;;;10317863;28;20054;-84
2021/05/15 20:10:03;;;;;;;3.65;1.40;;;11.40;99.90;;;;;;10318693;28;20045;-85
2021/05/15 20:15:24;;;;;;;4.03;2.22;;;11.50;99.90;;;;;;10330603;28;20045;-85
2021/05/15 20:20:45;;;;;;;4.43;1.63;;;11.40;99.90;;;;;;10299899;28;20053;-84
2021/05/15 20:26:06;;;;;;;4.75;2.10;;;11.30;99.90;;;;;;10301476;28;20069;-84
2021/05/15 20:31:27;;;;;;;4.07;1.30;;;11.40;99.90;;;;;;10330653;28;20073;-86
2021/05/15 20:36:48;;;;;;;2.88;1.25;;;11.40;99.90;;;;;;10306897;28;20627;-84
2021/05/15 20:42:10;;;;;;;3.25;1.52;;;11.30;99.90;;;;;;10307992;28;20111;-83
2021/05/15 20:47:31;;;;;;;4.32;2.10;;;11.30;99.90;;;;;;10350504;28;20033;-84
2021/05/15 20:52:52;;;;;;;3.10;1.45;;;11.20;99.90;;;;;;10315895;28;20552;-83
2021/05/15 20:58:15;;;;;;;3.22;1.70;;;11.20;99.90;;;;;;10332491;28;20046;-82
2021/05/15 21:03:36;;;;;;;3.55;1.85;;;11.20;99.90;;;;;;10309000;28;20057;-83
2021/05/15 21:08:59;;;;;;;3.25;1.55;;;11.20;99.90;;;;;;10345294;28;20056;-83
2021/05/15 21:14:20;;;;;;;4.80;2.10;;;11.30;99.90;;;;;;10316226;28;20068;-83
2021/05/15 21:19:41;;;;;;;5.70;2.15;;;11.30;99.90;;;;;;10326734;28;20133;-84
2021/05/15 21:25:03;;;;;;;4.80;2.10;;;11.30;99.90;;;;;;10300897;28;20046;-83
2021/05/15 21:30:24;;;;;;;4.50;1.80;;;11.30;99.90;;;;;;10317449;28;20042;-83
2021/05/15 21:35:45;;;;;;;5.35;2.65;;;11.40;99.90;;;;;;10332258;28;20046;-83
2021/05/15 21:41:07;;;;;;;4.88;2.08;;;11.30;99.90;;;;;;10317435;28;20736;-83
2021/05/15 21:46:30;;;;;;;5.63;2.70;;;11.30;99.90;;;;;;10312444;28;20042;-83
2021/05/15 21:51:51;;;;;;;6.75;3.20;;;11.20;99.90;;;;;;10314926;28;20041;-84
2021/05/15 21:57:12;;;;;;;7.30;3.22;;;11.10;99.90;;;;;;10317468;28;20058;-83
2021/05/15 22:02:33;;;;;;;4.43;2.03;;;11.10;99.90;;;;;;10294991;28;20452;-84
2021/05/15 22:07:54;;;;;;;4.95;2.50;;;11.20;99.90;;;;;;10317691;28;21611;-84
2021/05/15 22:13:15;;;;;;;4.35;1.80;;;11.00;99.90;;;;;;10307656;28;20485;-84
2021/05/15 22:18:36;;;;;;;6.13;2.63;;;10.90;99.90;;;;;;10323715;28;20050;-84
2021/05/15 22:23:58;;;;;;;7.05;2.65;;;10.80;99.90;;;;;;10335676;28;20053;-84
2021/05/15 22:29:19;;;;;;;5.65;2.67;;;10.80;99.90;;;;;;10313040;28;20493;-84
2021/05/15 22:34:40;;;;;;;5.78;1.77;;;10.80;99.90;;;;;;10340058;28;20080;-84
2021/05/15 22:40:04;;;;;;;8.05;2.17;;;10.80;99.90;;;;;;10328032;28;20086;-84
2021/05/15 22:45:25;;;;;;;5.45;2.55;;;10.70;99.90;;;;;;10349634;28;20058;-84
2021/05/15 22:50:46;;;;;;;4.68;1.90;;;10.60;99.90;;;;;;10336451;28;20041;-83
2021/05/15 22:56:08;;;;;;;4.18;1.83;;;10.50;99.90;;;;;;10336183;28;20049;-83
2021/05/15 23:01:31;;;;;;;4.25;1.65;;;10.40;99.90;;;;;;10340924;28;20052;-83
2021/05/15 23:06:52;;;;;;;5.50;1.88;;;10.50;99.90;;;;;;10349889;28;20129;-83
2021/05/15 23:12:13;;;;;;;5.10;1.65;;;10.40;99.90;;;;;;10340378;28;20132;-85
2021/05/15 23:17:34;;;;;;;4.10;1.38;;;10.30;99.90;;;;;;10340981;28;20037;-84
2021/05/15 23:22:56;;;;;;;4.88;1.80;;;10.20;99.90;;;;;;10334437;28;20062;-83
2021/05/15 23:28:17;;;;;;;5.72;2.08;;;10.20;99.90;;;;;;10349843;28;20125;-83
2021/05/15 23:33:38;;;;;;;5.60;2.08;;;10.20;99.90;;;;;;10348374;28;20061;-84
2021/05/15 23:38:59;;;;;;;4.85;2.35;;;10.30;99.90;;;;;;10347205;28;20053;-84
2021/05/15 23:44:20;;;;;;;5.20;1.70;;;10.30;99.90;;;;;;10337027;28;20046;-84
2021/05/15 23:49:41;;;;;;;5.60;2.55;;;10.30;99.90;;;;;;10348526;28;20382;-84
2021/05/15 23:55:04;;;;;;;8.82;2.90;;;10.40;99.90;;;;;;10351440;28;20050;-84
